Time;durP1;ratioP1;P1;durP2;ratioP2;P2;SDS_P1;SDS_P2;PMS_P1;PMS_P2;Temp;Humidity;BMP_temperature;BMP_pressure;BME280_temperature;BME280_humidity;BME280_pressure;Samples;Min_cycle;Max_cycle;Signal;HPM_P1;HPM_P2
2022/08/04 00:00:44;;;;;;;9.83;7.87;;;;;;;25.37;53.59;99463.34;5090898;28;20226;-66
2022/08/04 00:03:19;;;;;;;8.97;7.87;;;;;;;25.28;54.16;99458.50;5090578;28;20201;-65
2022/08/04 00:05:59;;;;;;;9.03;7.87;;;;;;;25.30;54.41;99468.03;5090864;28;20190;-66
2022/08/04 00:08:35;;;;;;;9.87;7.80;;;;;;;25.32;54.52;99465.34;5089325;28;20436;-66
2022/08/04 00:11:02;;;;;;;8.77;6.72;;;;;;;25.40;53.79;99471.97;5090627;28;20186;-66
2022/08/04 00:13:32;;;;;;;7.03;6.43;;;;;;;25.38;52.44;99473.78;5090658;28;20194;-65
2022/08/04 00:16:04;;;;;;;8.43;6.38;;;;;;;25.31;53.22;99476.78;5090830;28;20255;-65
2022/08/04 00:18:35;;;;;;;6.97;6.37;;;;;;;25.23;53.58;99470.09;5090542;28;20208;-66
2022/08/04 00:21:06;;;;;;;7.33;6.73;;;;;;;25.19;53.76;99470.25;5090089;28;20218;-66
2022/08/04 00:23:34;;;;;;;7.23;6.63;;;;;;;25.13;54.23;99470.56;5090391;28;20679;-65
2022/08/04 00:26:01;;;;;;;9.10;6.87;;;;;;;25.11;53.77;99475.00;5090262;28;20190;-65
2022/08/04 00:28:28;;;;;;;7.63;6.83;;;;;;;24.90;54.85;99457.53;5090602;28;20191;-65
2022/08/04 00:30:56;;;;;;;7.87;6.70;;;;;;;24.94;55.16;99483.59;5090378;28;20188;-65
2022/08/04 00:33:23;;;;;;;7.13;6.50;;;;;;;24.92;54.99;99485.44;5090103;28;20665;-65
2022/08/04 00:35:51;;;;;;;7.30;6.60;;;;;;;24.86;55.48;99484.88;5090175;28;20797;-65
2022/08/04 00:38:19;;;;;;;9.67;7.20;;;;;;;24.83;55.26;99479.75;5090182;28;20206;-65
2022/08/04 00:40:55;;;;;;;8.47;7.37;;;;;;;24.82;55.72;99485.91;5090022;28;20716;-65
2022/08/04 00:43:31;;;;;;;8.27;7.40;;;;;;;24.77;55.84;99482.59;5090231;28;20186;-65
2022/08/04 00:46:33;;;;;;;9.90;7.60;;;;;;;24.73;56.17;99492.38;5090043;28;20576;-65
2022/08/04 00:49:24;;;;;;;9.53;7.50;;;;;;;24.67;56.34;99492.59;5074871;28;20202;-65
2022/08/04 00:52:06;;;;;;;8.07;7.37;;;;;;;24.68;56.52;99483.81;5090102;28;20195;-65
2022/08/04 00:54:41;;;;;;;8.03;7.30;;;;;;;24.52;56.82;99461.72;5089975;28;20191;-66
2022/08/04 00:57:28;;;;;;;8.50;6.73;;;;;;;24.58;56.39;99493.00;5090207;28;20240;-65
2022/08/04 01:00:06;;;;;;;8.67;7.27;;;;;;;24.55;56.46;99493.13;5089901;28;20677;-66
2022/08/04 01:02:37;;;;;;;8.47;7.50;;;;;;;24.57;56.65;99489.53;5089955;28;20688;-65
2022/08/04 01:05:06;;;;;;;7.97;7.07;;;;;;;24.59;56.44;99485.06;5090153;28;20195;-65
2022/08/04 01:08:11;;;;;;;8.33;7.53;;;;;;;24.53;56.32;99490.53;5089724;28;20186;-66
2022/08/04 01:10:54;;;;;;;8.03;7.33;;;;;;;24.52;57.05;99488.84;5068377;28;20198;-65
2022/08/04 01:13:36;;;;;;;9.48;7.95;;;;;;;24.51;57.27;99487.13;5089552;28;20448;-65
2022/08/04 01:16:06;;;;;;;7.70;6.90;;;;;;;24.53;57.25;99487.91;5089816;28;20191;-65
2022/08/04 01:18:48;;;;;;;7.50;6.90;;;;;;;24.53;57.61;99487.91;5089968;28;20282;-65
2022/08/04 01:21:41;;;;;;;7.27;6.67;;;;;;;24.48;58.27;99495.13;5089718;28;20268;-66
2022/08/04 01:24:29;;;;;;;7.27;6.37;;;;;;;24.44;59.10;99490.94;5089953;28;20194;-66
2022/08/04 01:27:03;;;;;;;8.20;7.10;;;;;;;24.39;59.15;99492.88;5089887;28;20187;-66
2022/08/04 01:29:35;;;;;;;7.70;7.00;;;;;;;24.36;59.64;99487.78;5089708;28;20202;-66
2022/08/04 01:32:04;;;;;;;7.63;6.93;;;;;;;24.35;59.33;99486.03;5089937;28;20241;-66
2022/08/04 01:34:36;;;;;;;7.43;6.83;;;;;;;24.35;59.45;99488.66;5093215;28;20193;-65
2022/08/04 01:37:17;;;;;;;7.63;6.83;;;;;;;24.33;59.79;99490.50;5093514;28;20190;-65
2022/08/04 01:39:51;;;;;;;7.93;7.33;;;;;;;24.22;59.74;99478.72;5093393;28;20218;-65
2022/08/04 01:42:22;;;;;;;7.73;7.13;;;;;;;24.27;59.99;99492.50;5093332;28;20190;-65
2022/08/04 01:44:51;;;;;;;8.03;7.20;;;;;;;24.07;60.52;99469.63;5093315;28;20198;-65
2022/08/04 01:47:21;;;;;;;8.47;7.73;;;;;;;24.20;60.18;99491.06;5093313;28;20190;-65
2022/08/04 01:49:50;;;;;;;8.80;7.83;;;;;;;24.16;61.01;99497.31;5093237;28;20183;-65
2022/08/04 01:52:19;;;;;;;8.30;7.37;;;;;;;24.07;61.14;99486.22;5093150;28;20236;-65
2022/08/04 01:54:46;;;;;;;8.10;7.37;;;;;;;24.04;61.26;99488.97;5093650;28;20252;-66
2022/08/04 01:57:17;;;;;;;7.97;7.27;;;;;;;23.96;61.74;99488.41;5093325;28;20187;-65
2022/08/04 01:59:45;;;;;;;9.23;8.20;;;;;;;23.88;62.02;99477.34;5093265;28;20214;-65
2022/08/04 02:02:14;;;;;;;8.73;7.43;;;;;;;23.90;62.45;99487.78;5093118;28;20194;-65
2022/08/04 02:04:42;;;;;;;9.70;8.03;;;;;;;23.86;62.73;99481.81;5093008;28;20206;-65
2022/08/04 02:07:40;;;;;;;9.10;8.30;;;;;;;23.87;63.04;99483.50;5093419;28;20191;-65
2022/08/04 02:10:12;;;;;;;9.03;8.23;;;;;;;23.80;63.37;99479.41;5092929;28;20183;-65
2022/08/04 02:12:56;;;;;;;8.93;8.23;;;;;;;23.76;63.45;99490.09;5092969;28;20718;-65
2022/08/04 02:15:30;;;;;;;9.13;8.10;;;;;;;23.74;63.40;99494.53;5092771;28;20247;-65
2022/08/04 02:18:19;;;;;;;10.10;8.10;;;;;;;23.69;63.95;99492.06;5092704;28;20187;-65
2022/08/04 02:20:48;;;;;;;9.65;8.75;;;;;;;23.64;64.18;99495.78;5092284;28;20494;-65
2022/08/04 02:23:19;;;;;;;9.20;8.30;;;;;;;23.72;63.90;99494.59;5092765;28;20191;-65
2022/08/04 02:25:57;;;;;;;9.23;8.40;;;;;;;23.59;63.92;99501.22;5092670;28;20213;-65
2022/08/04 02:28:30;;;;;;;10.53;9.63;;;;;;;23.60;63.88;99489.78;5092618;28;20209;-65
2022/08/04 02:31:22;;;;;;;10.90;9.90;;;;;;;23.60;63.81;99496.78;5092690;28;20187;-66
2022/08/04 02:33:59;;;;;;;9.23;8.50;;;;;;;23.56;64.29;99503.94;5092451;28;20199;-65
2022/08/04 02:36:31;;;;;;;12.17;8.77;;;;;;;23.52;64.04;99489.22;5092453;28;20191;-65
2022/08/04 02:39:00;;;;;;;8.97;7.90;;;;;;;23.52;63.74;99490.97;5092648;28;20191;-65
2022/08/04 02:41:29;;;;;;;9.93;7.63;;;;;;;23.40;63.79;99484.44;5092439;28;20219;-65
2022/08/04 02:43:59;;;;;;;10.70;7.83;;;;;;;23.37;64.05;99495.00;5092200;28;20274;-65
2022/08/04 02:46:26;;;;;;;7.95;7.25;;;;;;;23.36;63.94;99488.03;5091361;28;20451;-65
2022/08/04 02:48:56;;;;;;;8.97;7.97;;;;;;;23.31;64.40;99492.56;5092065;28;20204;-65
2022/08/04 02:51:25;;;;;;;8.07;7.27;;;;;;;23.24;64.55;99491.09;5092259;28;20256;-65
2022/08/04 02:53:54;;;;;;;8.77;8.07;;;;;;;23.03;64.49;99471.72;5092446;28;20198;-65
2022/08/04 02:56:23;;;;;;;8.20;7.60;;;;;;;23.12;64.64;99484.50;5091961;28;20251;-65
2022/08/04 02:58:56;;;;;;;8.47;7.50;;;;;;;23.10;64.84;99493.34;5091862;28;20227;-65
2022/08/04 03:01:23;;;;;;;8.27;7.53;;;;;;;22.99;65.17;99492.84;5091722;28;20266;-65
2022/08/04 03:04:01;;;;;;;8.03;7.33;;;;;;;23.04;65.24;99494.41;5092107;28;20278;-65
2022/08/04 03:07:19;;;;;;;11.47;7.63;;;;;;;23.05;65.43;99495.22;5091784;28;20193;-65
2022/08/04 03:10:13;;;;;;;8.83;8.00;;;;;;;23.08;65.18;99503.84;5049325;28;20265;-66
2022/08/04 03:13:08;;;;;;;8.27;7.47;;;;;;;22.97;65.25;99505.97;5049420;28;20309;-66
2022/08/04 03:15:58;;;;;;;8.20;7.57;;;;;;;23.05;65.60;99500.47;5083854;28;20202;-65
2022/08/04 03:19:05;;;;;;;9.23;8.37;;;;;;;23.10;65.10;99501.19;5086273;28;20187;-66
2022/08/04 03:22:02;;;;;;;8.73;7.93;;;;;;;23.11;65.13;99505.50;5091517;28;20225;-65
2022/08/04 03:25:04;;;;;;;8.93;8.23;;;;;;;23.12;64.79;99512.47;5060628;28;20665;-65
2022/08/04 03:27:59;;;;;;;8.82;8.02;;;;;;;23.13;65.06;99504.53;5084182;28;20419;-65
2022/08/04 03:30:42;;;;;;;8.80;8.00;;;;;;;23.15;64.77;99501.88;5088217;28;20244;-65
2022/08/04 03:33:31;;;;;;;9.47;7.67;;;;;;;23.06;64.86;99505.69;5091433;28;20187;-66
2022/08/04 03:36:29;;;;;;;8.53;7.73;;;;;;;23.13;64.94;99508.97;5091215;28;20198;-65
2022/08/04 03:39:22;;;;;;;11.13;7.90;;;;;;;23.14;64.77;99500.16;5091103;28;20190;-65
2022/08/04 03:42:33;;;;;;;8.67;7.93;;;;;;;23.19;64.56;99508.72;5090914;28;20222;-66
2022/08/04 03:45:27;;;;;;;9.13;8.30;;;;;;;23.18;64.28;99496.53;5091131;28;20273;-65
2022/08/04 03:48:22;;;;;;;8.37;7.57;;;;;;;23.26;63.73;99505.84;5091203;28;20576;-66
2022/08/04 03:54:45;;;;;;;8.82;7.57;;;;;;;23.34;63.14;99502.97;5089987;28;20423;-66
2022/08/04 03:57:44;;;;;;;9.23;8.33;;;;;;;23.51;62.80;99503.25;5072707;28;20190;-64
2022/08/04 04:00:16;;;;;;;7.93;7.23;;;;;;;23.62;62.21;99505.47;5082519;28;20290;-65
2022/08/04 04:03:31;;;;;;;8.63;7.93;;;;;;;23.63;61.51;99502.78;5090331;28;20285;-66
2022/08/04 04:06:29;;;;;;;9.63;8.73;;;;;;;23.65;61.20;99502.75;5008567;28;20197;-65
2022/08/04 04:09:28;;;;;;;9.90;7.87;;;;;;;23.73;61.28;99512.06;5008733;28;20312;-65
2022/08/04 04:12:14;;;;;;;9.47;8.50;;;;;;;23.81;61.39;99512.63;5066749;28;20197;-65
2022/08/04 04:15:03;;;;;;;10.17;9.17;;;;;;;23.74;61.93;99512.88;5090656;28;20689;-65
2022/08/04 04:17:54;;;;;;;10.60;8.37;;;;;;;23.62;62.47;99519.47;5090557;28;20198;-65
2022/08/04 04:20:50;;;;;;;10.43;8.33;;;;;;;23.71;62.17;99521.72;5090307;28;20218;-65
2022/08/04 04:23:52;;;;;;;8.73;7.93;;;;;;;23.79;62.05;99517.06;5087731;28;20244;-65
2022/08/04 04:26:58;;;;;;;8.40;7.70;;;;;;;23.82;61.96;99527.44;5090325;28;20190;-65
2022/08/04 04:29:56;;;;;;;12.20;7.90;;;;;;;23.77;61.63;99521.50;5042491;28;20545;-65
2022/08/04 04:32:27;;;;;;;8.73;8.03;;;;;;;23.76;61.43;99526.81;5090394;28;20631;-65
2022/08/04 04:35:21;;;;;;;8.93;8.17;;;;;;;23.74;61.35;99532.13;5090071;28;20194;-65
2022/08/04 04:38:06;;;;;;;9.95;8.75;;;;;;;23.72;61.84;99522.59;5089081;28;20466;-65
2022/08/04 04:40:48;;;;;;;10.00;9.00;;;;;;;23.77;61.87;99526.75;5090284;28;20241;-65
2022/08/04 04:43:37;;;;;;;10.20;9.40;;;;;;;23.68;62.17;99524.47;5089971;28;20238;-65
2022/08/04 04:46:11;;;;;;;10.87;9.07;;;;;;;23.68;62.17;99531.50;5090235;28;20194;-65
2022/08/04 04:48:52;;;;;;;10.17;8.80;;;;;;;23.76;62.08;99525.03;5090224;28;20191;-65
2022/08/04 04:51:29;;;;;;;11.83;8.80;;;;;;;23.73;62.42;99527.81;5090002;28;20186;-65
2022/08/04 04:54:06;;;;;;;9.50;8.60;;;;;;;23.82;62.52;99523.94;5089606;28;20611;-65
2022/08/04 04:56:40;;;;;;;9.60;8.77;;;;;;;23.93;61.83;99524.41;5089916;28;20198;-65
2022/08/04 04:59:11;;;;;;;10.10;7.90;;;;;;;23.96;61.27;99540.03;5089886;28;20232;-66
2022/08/04 05:02:05;;;;;;;9.15;8.40;;;;;;;24.05;61.15;99527.44;5088637;28;20459;-66
2022/08/04 05:04:57;;;;;;;8.67;7.77;;;;;;;24.22;60.49;99526.84;5089590;28;20658;-66
2022/08/04 05:07:49;;;;;;;9.13;8.23;;;;;;;24.27;60.27;99531.91;5089566;28;20206;-66
2022/08/04 05:10:27;;;;;;;9.03;8.13;;;;;;;24.31;59.52;99541.38;5093751;28;20194;-67
2022/08/04 05:13:12;;;;;;;7.53;6.93;;;;;;;24.32;59.11;99537.81;5093722;28;20195;-67
2022/08/04 05:15:43;;;;;;;9.97;8.00;;;;;;;24.30;59.86;99535.28;5093401;28;20213;-66
2022/08/04 05:18:16;;;;;;;7.93;7.27;;;;;;;24.33;59.21;99542.19;5093734;28;20203;-66
2022/08/04 05:20:47;;;;;;;7.97;7.17;;;;;;;24.34;58.47;99547.34;5093325;28;20237;-67
2022/08/04 05:23:19;;;;;;;7.13;6.63;;;;;;;24.36;58.02;99547.31;5093373;28;20198;-66
2022/08/04 05:25:53;;;;;;;9.00;6.70;;;;;;;24.26;58.36;99543.31;5093208;28;20252;-66
2022/08/04 05:28:24;;;;;;;7.53;6.80;;;;;;;24.21;58.84;99547.88;5093157;28;20296;-67
2022/08/04 05:30:57;;;;;;;7.53;6.73;;;;;;;24.13;58.96;99542.94;5092934;28;20194;-66
2022/08/04 05:33:28;;;;;;;7.97;7.10;;;;;;;24.23;60.04;99536.41;5093114;28;20187;-67
2022/08/04 05:35:58;;;;;;;8.63;7.47;;;;;;;24.34;58.95;99541.25;5092989;28;20199;-66
2022/08/04 05:38:34;;;;;;;8.77;7.97;;;;;;;24.32;59.31;99553.59;5093098;28;20206;-66
2022/08/04 05:41:01;;;;;;;7.70;7.07;;;;;;;24.29;59.07;99549.31;5092613;28;20716;-66
2022/08/04 05:43:30;;;;;;;7.97;7.28;;;;;;;24.28;59.34;99547.59;5093187;28;20353;-66
2022/08/04 05:45:58;;;;;;;8.30;6.97;;;;;;;24.28;59.76;99549.38;5092755;28;20195;-66
2022/08/04 05:48:26;;;;;;;7.60;7.00;;;;;;;24.27;58.92;99550.28;5092637;28;20613;-64
2022/08/04 05:50:53;;;;;;;7.10;6.50;;;;;;;24.19;59.15;99550.59;5092618;28;20195;-66
2022/08/04 05:53:22;;;;;;;8.23;7.53;;;;;;;24.12;59.22;99554.34;5093003;28;20206;-66
2022/08/04 05:55:52;;;;;;;9.60;7.33;;;;;;;24.03;59.30;99557.31;5092813;28;20202;-66
2022/08/04 05:58:20;;;;;;;8.60;7.73;;;;;;;23.85;60.08;99545.69;5092496;28;20283;-66
2022/08/04 06:00:49;;;;;;;10.60;7.30;;;;;;;23.86;59.87;99544.81;5092098;28;20214;-66
2022/08/04 06:03:19;;;;;;;9.40;7.87;;;;;;;23.93;59.61;99553.28;5092454;28;20248;-66
2022/08/04 06:05:47;;;;;;;14.83;8.97;;;;;;;24.07;59.52;99546.63;5092274;28;20195;-66
2022/08/04 06:08:14;;;;;;;8.40;7.60;;;;;;;24.19;59.38;99542.72;5092013;28;20469;-65
2022/08/04 06:10:44;;;;;;;8.33;7.63;;;;;;;24.46;58.63;99543.41;5092054;28;20191;-65
2022/08/04 06:13:17;;;;;;;8.77;7.80;;;;;;;24.58;57.96;99540.31;5091727;28;20187;-65
2022/08/04 06:15:47;;;;;;;7.37;6.67;;;;;;;24.72;57.57;99542.38;5091971;28;20678;-65
2022/08/04 06:18:15;;;;;;;11.60;8.20;;;;;;;24.76;57.74;99547.44;5092432;28;20751;-65
2022/08/04 06:20:43;;;;;;;8.47;7.57;;;;;;;24.78;57.79;99552.66;5091938;28;20590;-65
2022/08/04 06:23:15;;;;;;;7.73;6.93;;;;;;;24.84;57.36;99548.00;5092282;28;20256;-66
2022/08/04 06:25:47;;;;;;;9.50;8.10;;;;;;;24.96;57.80;99541.41;5092042;28;20195;-65
2022/08/04 06:28:16;;;;;;;9.03;8.13;;;;;;;25.11;57.25;99546.00;5092274;28;20194;-65
2022/08/04 06:30:46;;;;;;;8.37;7.50;;;;;;;25.27;57.40;99544.47;5092357;28;20194;-66
2022/08/04 06:33:26;;;;;;;8.10;7.33;;;;;;;25.38;56.88;99536.09;5092020;28;20194;-67
2022/08/04 06:35:54;;;;;;;8.87;7.53;;;;;;;25.42;56.59;99542.94;5092486;28;20190;-65
2022/08/04 06:38:22;;;;;;;8.23;7.47;;;;;;;25.41;56.86;99536.81;5091352;28;20196;-65
2022/08/04 06:40:49;;;;;;;7.90;7.30;;;;;;;25.53;56.41;99532.81;5091762;28;20199;-66
2022/08/04 06:43:18;;;;;;;8.50;7.27;;;;;;;25.67;55.47;99530.44;5091506;28;20198;-66
2022/08/04 06:45:47;;;;;;;8.03;7.10;;;;;;;25.79;55.07;99524.63;5091748;28;20195;-65
2022/08/04 06:48:17;;;;;;;11.57;7.27;;;;;;;25.88;55.16;99539.13;5091479;28;20187;-65
2022/08/04 06:50:47;;;;;;;9.38;7.05;;;;;;;25.93;53.74;99522.22;5091404;28;20180;-67
2022/08/04 06:53:15;;;;;;;7.03;6.20;;;;;;;26.15;52.88;99533.50;5091672;28;20592;-66
2022/08/04 06:55:45;;;;;;;8.23;7.50;;;;;;;26.17;52.12;99529.03;5091455;28;20268;-66
2022/08/04 06:58:12;;;;;;;7.33;6.67;;;;;;;26.32;51.73;99532.72;5091183;28;20697;-66
2022/08/04 07:00:43;;;;;;;7.27;6.27;;;;;;;26.33;50.38;99524.75;5091376;28;20191;-66
2022/08/04 07:03:12;;;;;;;6.77;6.03;;;;;;;26.45;50.91;99525.09;5091555;28;20221;-66
2022/08/04 07:05:40;;;;;;;7.40;6.67;;;;;;;26.53;50.93;99515.03;5090846;28;20558;-66
2022/08/04 07:08:08;;;;;;;7.77;6.97;;;;;;;26.66;50.56;99530.19;5091120;28;20278;-66
2022/08/04 07:10:35;;;;;;;10.10;6.77;;;;;;;26.72;49.90;99521.97;5090590;28;20199;-65
2022/08/04 07:13:03;;;;;;;9.30;6.83;;;;;;;26.79;50.04;99533.09;5090474;28;20191;-65
2022/08/04 07:15:31;;;;;;;8.25;7.55;;;;;;;26.93;49.87;99531.50;5090445;28;20847;-66
2022/08/04 07:18:02;;;;;;;7.57;6.88;;;;;;;26.99;49.71;99527.69;5090418;28;20198;-66
2022/08/04 07:20:29;;;;;;;7.32;6.63;;;;;;;27.02;49.31;99537.22;5090640;28;20230;-66
2022/08/04 07:22:58;;;;;;;6.80;6.10;;;;;;;27.08;48.54;99527.25;5090533;28;20210;-65
2022/08/04 07:25:26;;;;;;;7.50;6.90;;;;;;;27.14;48.22;99529.53;5090659;28;20191;-58
2022/08/04 07:27:53;;;;;;;9.07;6.85;;;;;;;27.12;48.57;99523.50;5090695;28;20202;-58
2022/08/04 07:30:20;;;;;;;8.93;6.80;;;;;;;27.24;48.57;99529.94;5090080;28;20222;-58
2022/08/04 07:32:47;;;;;;;10.63;6.53;;;;;;;27.35;48.07;99527.59;5090162;28;20195;-58
2022/08/04 07:35:16;;;;;;;8.38;6.70;;;;;;;27.42;48.32;99527.25;5090325;28;20198;-58
2022/08/04 07:37:43;;;;;;;6.72;6.22;;;;;;;27.55;47.54;99531.91;5090162;28;20186;-58
2022/08/04 07:40:10;;;;;;;7.20;6.60;;;;;;;27.46;47.38;99522.66;5090113;28;20197;-58
2022/08/04 07:42:37;;;;;;;6.93;6.32;;;;;;;27.60;47.37;99524.56;5089751;28;20218;-58
2022/08/04 07:45:05;;;;;;;7.25;6.63;;;;;;;27.71;46.89;99530.16;5089856;28;20179;-65
2022/08/04 07:47:32;;;;;;;10.65;6.97;;;;;;;27.74;46.65;99524.69;5089831;28;20221;-65
2022/08/04 07:49:58;;;;;;;6.68;6.07;;;;;;;27.83;46.15;99521.56;5090087;28;20204;-66
2022/08/04 07:52:28;;;;;;;10.88;7.38;;;;;;;27.72;46.72;99514.22;5090053;28;20191;-66
2022/08/04 07:54:55;;;;;;;7.43;6.72;;;;;;;27.92;46.17;99513.13;5090021;28;20186;-67
2022/08/04 07:57:22;;;;;;;6.43;5.93;;;;;;;27.93;45.49;99528.06;5089973;28;20252;-65
2022/08/04 07:59:49;;;;;;;7.32;6.63;;;;;;;27.97;45.25;99519.88;5089644;28;20450;-66
2022/08/04 08:02:19;;;;;;;7.28;6.63;;;;;;;28.14;45.15;99519.00;5089769;28;20215;-66
2022/08/04 08:04:47;;;;;;;7.18;6.68;;;;;;;28.22;44.77;99510.63;5089790;28;20673;-66
2022/08/04 08:07:14;;;;;;;7.07;6.57;;;;;;;28.28;44.47;99508.53;5089691;28;20187;-67
2022/08/04 08:09:42;;;;;;;6.90;6.40;;;;;;;28.27;44.05;99512.09;5089556;28;20202;-66
2022/08/04 08:12:10;;;;;;;6.30;5.80;;;;;;;28.30;44.09;99509.28;5089839;28;20190;-66
2022/08/04 08:14:37;;;;;;;6.65;6.00;;;;;;;28.39;44.24;99507.91;5089625;28;20205;-66
2022/08/04 08:17:05;;;;;;;7.15;6.50;;;;;;;28.47;44.52;99495.97;5089714;28;20194;-58
2022/08/04 08:19:33;;;;;;;7.82;6.30;;;;;;;28.67;43.68;99500.16;5089557;28;20230;-58
2022/08/04 08:22:01;;;;;;;6.93;6.25;;;;;;;28.78;43.24;99495.09;5089099;28;20219;-58
2022/08/04 08:24:28;;;;;;;7.38;6.60;;;;;;;28.91;42.77;99505.81;5089492;28;20439;-58
2022/08/04 08:26:57;;;;;;;9.95;6.47;;;;;;;29.00;41.97;99503.50;5089614;28;20195;-58
2022/08/04 08:29:25;;;;;;;6.95;5.82;;;;;;;29.12;41.83;99501.88;5089557;28;20244;-58
2022/08/04 08:31:53;;;;;;;6.65;6.10;;;;;;;29.15;40.25;99501.72;5089299;28;20191;-58
2022/08/04 08:34:20;;;;;;;6.78;6.13;;;;;;;29.22;40.11;99505.75;5089427;28;20601;-58
2022/08/04 08:36:52;;;;;;;5.93;5.43;;;;;;;29.28;38.10;99508.03;5089455;28;20187;-58
2022/08/04 08:39:24;;;;;;;8.10;4.78;;;;;;;29.21;38.18;99502.25;5089505;28;20206;-59
2022/08/04 08:42:29;;;;;;;6.13;5.18;;;;;;;29.35;37.68;99496.13;5089288;28;20222;-66
2022/08/04 08:45:28;;;;;;;6.63;5.78;;;;;;;29.54;37.76;99498.50;5080377;28;20198;-66
2022/08/04 08:48:31;;;;;;;6.95;4.90;;;;;;;29.74;37.05;99490.19;5089381;28;20209;-66
2022/08/04 08:51:17;;;;;;;5.82;5.43;;;;;;;29.80;36.77;99489.84;5072287;28;20190;-65
2022/08/04 08:54:08;;;;;;;5.20;4.72;;;;;;;29.92;36.21;99488.19;5089046;28;20195;-66
2022/08/04 08:56:42;;;;;;;7.30;5.00;;;;;;;30.03;36.72;99494.53;5088987;28;20673;-65
2022/08/04 08:59:26;;;;;;;5.80;5.30;;;;;;;30.21;36.45;99484.56;5089032;28;20226;-66
2022/08/04 09:02:11;;;;;;;8.15;4.93;;;;;;;30.34;35.46;99493.41;5089119;28;20218;-67
2022/08/04 09:05:14;;;;;;;6.22;5.50;;;;;;;30.37;34.24;99491.47;5089124;28;20734;-66
2022/08/04 09:07:57;;;;;;;4.75;4.20;;;;;;;30.47;33.64;99483.75;5082336;28;20198;-66
2022/08/04 09:10:28;;;;;;;4.82;3.88;;;;;;;30.55;33.24;99484.09;5087602;28;20428;-66
2022/08/04 09:13:02;;;;;;;4.93;4.07;;;;;;;30.65;32.07;99479.03;5089167;28;20193;-66
2022/08/04 09:15:35;;;;;;;5.10;4.70;;;;;;;30.70;32.31;99475.13;5088964;28;20193;-65
2022/08/04 09:18:10;;;;;;;5.28;4.25;;;;;;;30.68;32.99;99469.09;5089228;28;20590;-66
2022/08/04 09:20:45;;;;;;;6.72;4.28;;;;;;;30.67;33.43;99464.72;5088676;28;20190;-66
2022/08/04 09:23:23;;;;;;;7.80;6.00;;;;;;;30.64;33.90;99464.91;5088562;28;20214;-66
2022/08/04 09:25:58;;;;;;;5.43;4.85;;;;;;;30.78;33.30;99462.19;5088725;28;20572;-66
2022/08/04 09:28:27;;;;;;;6.32;5.72;;;;;;;30.88;34.15;99449.16;5088663;28;20208;-65
2022/08/04 09:30:59;;;;;;;6.93;5.95;;;;;;;30.96;34.15;99452.16;5088499;28;20326;-65
2022/08/04 09:33:42;;;;;;;6.13;4.20;;;;;;;30.87;32.08;99464.25;5088211;28;20428;-67
2022/08/04 09:36:22;;;;;;;4.78;4.43;;;;;;;30.84;31.73;99452.97;5088701;28;20248;-66
2022/08/04 09:39:01;;;;;;;5.18;4.07;;;;;;;30.86;32.28;99445.75;5088877;28;20195;-67
2022/08/04 09:41:35;;;;;;;4.45;4.15;;;;;;;30.96;31.11;99452.16;5088626;28;20263;-66
2022/08/04 09:44:11;;;;;;;4.90;4.40;;;;;;;31.13;30.97;99448.38;5088638;28;20224;-66
2022/08/04 09:46:45;;;;;;;5.72;4.38;;;;;;;31.31;31.67;99452.44;5088904;28;20198;-66
2022/08/04 09:49:18;;;;;;;4.65;4.25;;;;;;;31.24;31.08;99456.44;5088889;28;20199;-67
2022/08/04 09:51:56;;;;;;;4.43;3.80;;;;;;;31.32;30.98;99456.75;5088729;28;20199;-59
2022/08/04 09:54:32;;;;;;;4.45;4.15;;;;;;;31.41;31.87;99445.50;5090463;28;20187;-59
2022/08/04 09:57:14;;;;;;;4.80;4.03;;;;;;;31.54;30.82;99446.38;5093161;28;20194;-59
2022/08/04 09:59:45;;;;;;;5.15;4.53;;;;;;;31.51;30.29;99444.78;5092364;28;20191;-59
2022/08/04 10:02:15;;;;;;;5.68;4.03;;;;;;;31.62;30.66;99444.03;5092485;28;20218;-59
2022/08/04 10:04:44;;;;;;;7.25;4.20;;;;;;;31.58;30.79;99428.41;5092218;28;20649;-59
2022/08/04 10:07:29;;;;;;;4.13;3.80;;;;;;;31.78;30.10;99436.66;5092226;28;20194;-58
2022/08/04 10:10:09;;;;;;;7.85;4.35;;;;;;;31.83;30.62;99434.53;5092323;28;20581;-58
2022/08/04 10:12:51;;;;;;;5.70;5.30;;;;;;;31.93;30.75;99443.53;5091888;28;20561;-58
2022/08/04 10:15:26;;;;;;;4.60;4.20;;;;;;;31.85;29.99;99421.97;5092301;28;20199;-59
2022/08/04 10:18:09;;;;;;;4.17;3.87;;;;;;;31.79;29.27;99432.19;5091304;28;20933;-59
2022/08/04 10:21:01;;;;;;;4.82;4.10;;;;;;;31.88;29.25;99424.41;5091976;28;20283;-59
2022/08/04 10:23:38;;;;;;;5.05;4.05;;;;;;;31.74;29.44;99392.66;5085596;28;20218;-59
2022/08/04 10:26:22;;;;;;;6.57;5.97;;;;;;;32.05;29.98;99415.25;5092009;28;20262;-66
2022/08/04 10:28:55;;;;;;;7.78;4.15;;;;;;;32.07;29.12;99414.19;5092260;28;20318;-66
2022/08/04 10:31:29;;;;;;;7.05;4.70;;;;;;;32.22;30.80;99417.53;5091484;28;20195;-66
2022/08/04 10:34:01;;;;;;;5.38;3.78;;;;;;;32.40;29.18;99415.31;5091485;28;20186;-66
2022/08/04 10:36:40;;;;;;;6.20;3.83;;;;;;;32.41;29.38;99414.34;5091447;28;20564;-66
2022/08/04 10:39:12;;;;;;;5.00;4.38;;;;;;;32.44;28.12;99419.44;5091777;28;20278;-67
2022/08/04 10:41:49;;;;;;;5.03;3.63;;;;;;;32.30;27.86;99408.97;5091988;28;20570;-67
2022/08/04 10:44:26;;;;;;;4.68;4.38;;;;;;;32.21;27.86;99407.00;5091641;28;20214;-66
2022/08/04 10:46:57;;;;;;;4.70;3.97;;;;;;;32.16;28.39;99402.03;5091698;28;20201;-66
2022/08/04 10:49:33;;;;;;;4.43;3.92;;;;;;;32.20;28.16;99399.97;5091473;28;20191;-66
2022/08/04 10:52:07;;;;;;;4.30;4.00;;;;;;;32.15;28.66;99381.69;5091151;28;20190;-66
2022/08/04 10:54:46;;;;;;;4.63;4.25;;;;;;;32.26;29.01;99389.72;5090967;28;20187;-67
2022/08/04 10:57:19;;;;;;;4.30;3.90;;;;;;;32.34;27.91;99397.13;5091163;28;20190;-65
2022/08/04 10:59:53;;;;;;;3.33;3.13;;;;;;;32.41;27.36;99388.59;5091502;28;20281;-66
2022/08/04 11:02:30;;;;;;;4.05;3.70;;;;;;;32.53;28.33;99389.47;5090945;28;20307;-66
2022/08/04 11:05:10;;;;;;;3.40;3.17;;;;;;;32.32;27.10;99348.53;5090539;28;20611;-65
2022/08/04 11:07:41;;;;;;;4.32;3.92;;;;;;;32.53;27.57;99384.16;5090677;28;20194;-67
2022/08/04 11:10:09;;;;;;;4.25;3.90;;;;;;;32.56;27.74;99386.59;5091124;28;20264;-66
2022/08/04 11:12:40;;;;;;;4.25;3.75;;;;;;;32.66;26.59;99382.31;5090696;28;20199;-66
2022/08/04 11:15:12;;;;;;;4.07;3.30;;;;;;;32.81;26.70;99381.13;5091089;28;20190;-67
2022/08/04 11:17:43;;;;;;;3.67;3.47;;;;;;;32.79;26.61;99376.88;5091154;28;20195;-66
2022/08/04 11:20:17;;;;;;;4.20;3.80;;;;;;;32.91;26.60;99373.28;5090860;28;20202;-65
2022/08/04 11:22:52;;;;;;;4.28;3.90;;;;;;;33.09;27.42;99363.91;5091308;28;20233;-65
2022/08/04 11:25:22;;;;;;;5.07;4.57;;;;;;;33.20;26.13;99355.91;5090712;28;20440;-65
2022/08/04 11:27:56;;;;;;;4.50;4.10;;;;;;;33.24;26.36;99368.00;5090651;28;20696;-65
2022/08/04 11:30:30;;;;;;;3.50;3.20;;;;;;;33.15;25.69;99358.94;5090201;28;20722;-66
2022/08/04 11:33:06;;;;;;;3.80;3.53;;;;;;;33.20;25.59;99358.56;5090717;28;20191;-66
2022/08/04 11:35:39;;;;;;;4.43;4.03;;;;;;;33.15;25.49;99356.28;5090394;28;20201;-66
2022/08/04 11:38:12;;;;;;;5.32;3.78;;;;;;;32.97;25.91;99360.31;5090535;28;20191;-66
2022/08/04 11:40:43;;;;;;;3.55;3.25;;;;;;;32.95;25.80;99343.63;5090506;28;20546;-57
2022/08/04 11:43:16;;;;;;;4.50;4.10;;;;;;;33.14;26.59;99345.72;5090192;28;20222;-58
2022/08/04 11:45:53;;;;;;;3.65;3.40;;;;;;;33.35;26.05;99345.88;5090245;28;20191;-59
2022/08/04 11:48:25;;;;;;;3.78;3.50;;;;;;;33.06;25.44;99348.16;5090467;28;20194;-58
2022/08/04 11:50:54;;;;;;;3.65;3.35;;;;;;;32.94;25.08;99336.59;5089989;28;20443;-58
2022/08/04 11:53:25;;;;;;;4.18;3.33;;;;;;;33.02;25.27;99328.03;5090582;28;20269;-58
2022/08/04 11:55:54;;;;;;;3.55;3.35;;;;;;;32.75;25.86;99331.00;5090410;28;20198;-58
2022/08/04 11:58:22;;;;;;;4.68;3.35;;;;;;;32.56;25.96;99339.56;5090238;28;20222;-58
2022/08/04 12:00:59;;;;;;;4.80;3.65;;;;;;;32.51;25.91;99323.09;5090468;28;20202;-58
2022/08/04 12:03:35;;;;;;;4.15;3.78;;;;;;;32.77;26.46;99315.78;5090447;28;20206;-58
2022/08/04 12:06:13;;;;;;;4.90;4.10;;;;;;;32.71;25.99;99318.06;5090617;28;20191;-58
2022/08/04 12:09:04;;;;;;;3.33;3.03;;;;;;;32.74;26.08;99317.84;5090388;28;20203;-58
2022/08/04 12:11:56;;;;;;;3.78;3.45;;;;;;;32.98;25.55;99311.44;5090143;28;20274;-58
2022/08/04 12:14:30;;;;;;;4.00;3.70;;;;;;;32.84;26.16;99311.69;5088353;28;20634;-58
2022/08/04 12:17:00;;;;;;;3.75;3.47;;;;;;;32.90;25.92;99313.00;5089813;28;20662;-58